sensor_id;sensor_type;location;lat;lon;timestamp;temperature;humidity
5870;DHT22;2961;47.702;9.410;2023-03-03T00:00:44;1.30;99.90
5870;DHT22;2961;47.702;9.410;2023-03-03T00:03:14;1.30;99.90
5870;DHT22;2961;47.702;9.410;2023-03-03T00:05:41;1.20;99.90
5870;DHT22;2961;47.702;9.410;2023-03-03T00:08:08;1.20;99.90
5870;DHT22;2961;47.702;9.410;2023-03-03T00:10:38;1.20;99.90
5870;DHT22;2961;47.702;9.410;2023-03-03T00:13:11;1.30;99.90
5870;DHT22;2961;47.702;9.410;2023-03-03T00:15:38;1.40;99.90
5870;DHT22;2961;47.702;9.410;2023-03-03T00:18:16;1.30;99.90
5870;DHT22;2961;47.702;9.410;2023-03-03T00:20:48;1.30;99.90
5870;DHT22;2961;47.702;9.410;2023-03-03T00:23:28;1.20;99.90
5870;DHT22;2961;47.702;9.410;2023-03-03T00:25:57;1.20;99.90
5870;DHT22;2961;47.702;9.410;2023-03-03T00:28:27;1.20;99.90
5870;DHT22;2961;47.702;9.410;2023-03-03T00:30:55;1.20;99.90
5870;DHT22;2961;47.702;9.410;2023-03-03T00:33:27;1.10;99.90
5870;DHT22;2961;47.702;9.410;2023-03-03T00:36:05;1.10;99.90
5870;DHT22;2961;47.702;9.410;2023-03-03T00:38:35;1.10;99.90
5870;DHT22;2961;47.702;9.410;2023-03-03T00:41:13;1.20;99.90
5870;DHT22;2961;47.702;9.410;2023-03-03T00:43:41;1.20;99.90
5870;DHT22;2961;47.702;9.410;2023-03-03T00:46:09;1.10;99.90
5870;DHT22;2961;47.702;9.410;2023-03-03T00:48:41;1.10;99.90
5870;DHT22;2961;47.702;9.410;2023-03-03T00:51:24;1.10;99.90
5870;DHT22;2961;47.702;9.410;2023-03-03T00:53:52;1.20;99.90
5870;DHT22;2961;47.702;9.410;2023-03-03T00:56:20;1.20;99.90
5870;DHT22;2961;47.702;9.410;2023-03-03T00:58:47;1.30;99.90
5870;DHT22;2961;47.702;9.410;2023-03-03T01:01:14;1.40;99.90
5870;DHT22;2961;47.702;9.410;2023-03-03T01:03:42;1.40;99.90
5870;DHT22;2961;47.702;9.410;2023-03-03T01:06:09;1.40;99.90
5870;DHT22;2961;47.702;9.410;2023-03-03T01:08:37;1.30;99.90
5870;DHT22;2961;47.702;9.410;2023-03-03T01:11:07;1.30;99.90
5870;DHT22;2961;47.702;9.410;2023-03-03T01:13:37;1.20;99.90
5870;DHT22;2961;47.702;9.410;2023-03-03T01:16:06;1.20;99.90
5870;DHT22;2961;47.702;9.410;2023-03-03T01:18:34;1.20;99.90
5870;DHT22;2961;47.702;9.410;2023-03-03T01:21:01;1.20;99.90
5870;DHT22;2961;47.702;9.410;2023-03-03T01:23:27;1.20;99.90
5870;DHT22;2961;47.702;9.410;2023-03-03T01:25:54;1.10;99.90
5870;DHT22;2961;47.702;9.410;2023-03-03T01:28:21;1.10;99.90
5870;DHT22;2961;47.702;9.410;2023-03-03T01:30:49;1.20;99.90
5870;DHT22;2961;47.702;9.410;2023-03-03T01:33:16;1.20;99.90
5870;DHT22;2961;47.702;9.410;2023-03-03T01:35:43;1.20;99.90
5870;DHT22;2961;47.702;9.410;2023-03-03T01:38:10;1.20;99.90
5870;DHT22;2961;47.702;9.410;2023-03-03T01:40:37;1.20;99.90
5870;DHT22;2961;47.702;9.410;2023-03-03T01:43:04;1.30;99.90
5870;DHT22;2961;47.702;9.410;2023-03-03T01:45:41;1.30;99.90
5870;DHT22;2961;47.702;9.410;2023-03-03T01:48:16;1.20;99.90
5870;DHT22;2961;47.702;9.410;2023-03-03T01:50:48;1.20;99.90
5870;DHT22;2961;47.702;9.410;2023-03-03T01:53:19;1.20;99.90
5870;DHT22;2961;47.702;9.410;2023-03-03T01:55:49;1.10;99.90
5870;DHT22;2961;47.702;9.410;2023-03-03T01:58:21;1.10;99.90
5870;DHT22;2961;47.702;9.410;2023-03-03T02:00:50;1.10;99.90
5870;DHT22;2961;47.702;9.410;2023-03-03T02:03:21;1.10;99.90
5870;DHT22;2961;47.702;9.410;2023-03-03T02:05:51;1.10;99.90
5870;DHT22;2961;47.702;9.410;2023-03-03T02:08:22;1.10;99.90
5870;DHT22;2961;47.702;9.410;2023-03-03T02:10:52;1.10;99.90
5870;DHT22;2961;47.702;9.410;2023-03-03T02:13:19;1.10;99.90
5870;DHT22;2961;47.702;9.410;2023-03-03T02:15:45;1.10;99.90
5870;DHT22;2961;47.702;9.410;2023-03-03T02:18:14;1.10;99.90
5870;DHT22;2961;47.702;9.410;2023-03-03T02:20:52;1.00;99.90
5870;DHT22;2961;47.702;9.410;2023-03-03T02:23:22;1.00;99.90
5870;DHT22;2961;47.702;9.410;2023-03-03T02:26:03;1.00;99.90
5870;DHT22;2961;47.702;9.410;2023-03-03T02:28:33;1.00;99.90
5870;DHT22;2961;47.702;9.410;2023-03-03T02:31:01;1.00;99.90
5870;DHT22;2961;47.702;9.410;2023-03-03T02:33:28;1.00;99.90
5870;DHT22;2961;47.702;9.410;2023-03-03T02:35:55;1.00;99.90
5870;DHT22;2961;47.702;9.410;2023-03-03T02:38:26;1.00;99.90
5870;DHT22;2961;47.702;9.410;2023-03-03T02:40:59;1.00;99.90
5870;DHT22;2961;47.702;9.410;2023-03-03T02:43:32;1.00;99.90
5870;DHT22;2961;47.702;9.410;2023-03-03T02:46:02;1.00;99.90
5870;DHT22;2961;47.702;9.410;2023-03-03T02:48:29;1.00;99.90
5870;DHT22;2961;47.702;9.410;2023-03-03T02:50:56;1.00;99.90
5870;DHT22;2961;47.702;9.410;2023-03-03T02:53:23;1.00;99.90
5870;DHT22;2961;47.702;9.410;2023-03-03T02:55:49;1.10;99.90
5870;DHT22;2961;47.702;9.410;2023-03-03T02:58:16;1.20;99.90
5870;DHT22;2961;47.702;9.410;2023-03-03T03:00:44;1.20;99.90
5870;DHT22;2961;47.702;9.410;2023-03-03T03:03:13;1.20;99.90
5870;DHT22;2961;47.702;9.410;2023-03-03T03:05:39;1.10;99.90
5870;DHT22;2961;47.702;9.410;2023-03-03T03:08:06;1.10;99.90
5870;DHT22;2961;47.702;9.410;2023-03-03T03:10:33;1.10;99.90
5870;DHT22;2961;47.702;9.410;2023-03-03T03:13:00;1.10;99.90
5870;DHT22;2961;47.702;9.410;2023-03-03T03:15:27;1.10;99.90
5870;DHT22;2961;47.702;9.410;2023-03-03T03:17:55;1.00;99.90
5870;DHT22;2961;47.702;9.410;2023-03-03T03:20:22;1.00;99.90
5870;DHT22;2961;47.702;9.410;2023-03-03T03:22:49;1.00;99.90
5870;DHT22;2961;47.702;9.410;2023-03-03T03:25:15;1.10;99.90
5870;DHT22;2961;47.702;9.410;2023-03-03T03:27:42;1.10;99.90
5870;DHT22;2961;47.702;9.410;2023-03-03T03:30:10;1.10;99.90
5870;DHT22;2961;47.702;9.410;2023-03-03T03:32:37;1.00;99.90
5870;DHT22;2961;47.702;9.410;2023-03-03T03:35:06;1.00;99.90
5870;DHT22;2961;47.702;9.410;2023-03-03T03:37:32;1.00;99.90
5870;DHT22;2961;47.702;9.410;2023-03-03T03:39:59;1.00;99.90
5870;DHT22;2961;47.702;9.410;2023-03-03T03:42:26;1.00;99.90
5870;DHT22;2961;47.702;9.410;2023-03-03T03:44:53;1.00;99.90
5870;DHT22;2961;47.702;9.410;2023-03-03T03:47:19;1.00;99.90
5870;DHT22;2961;47.702;9.410;2023-03-03T03:49:46;1.00;99.90
5870;DHT22;2961;47.702;9.410;2023-03-03T03:52:14;1.00;99.90
5870;DHT22;2961;47.702;9.410;2023-03-03T03:54:41;1.00;99.90
5870;DHT22;2961;47.702;9.410;2023-03-03T03:57:08;1.00;99.90
5870;DHT22;2961;47.702;9.410;2023-03-03T03:59:35;1.00;99.90
5870;DHT22;2961;47.702;9.410;2023-03-03T04:02:02;1.00;99.90
5870;DHT22;2961;47.702;9.410;2023-03-03T04:04:28;1.00;99.90
5870;DHT22;2961;47.702;9.410;2023-03-03T04:06:55;1.00;99.90
5870;DHT22;2961;47.702;9.410;2023-03-03T04:09:23;0.90;99.90
5870;DHT22;2961;47.702;9.410;2023-03-03T04:11:50;0.90;99.90
5870;DHT22;2961;47.702;9.410;2023-03-03T04:14:17;1.00;99.90
5870;DHT22;2961;47.702;9.410;2023-03-03T04:16:44;1.00;99.90
5870;DHT22;2961;47.702;9.410;2023-03-03T04:19:10;1.00;99.90
5870;DHT22;2961;47.702;9.410;2023-03-03T04:21:37;1.00;99.90
5870;DHT22;2961;47.702;9.410;2023-03-03T04:24:04;1.00;99.90
5870;DHT22;2961;47.702;9.410;2023-03-03T04:26:34;0.90;99.90
5870;DHT22;2961;47.702;9.410;2023-03-03T04:29:01;0.90;99.90
5870;DHT22;2961;47.702;9.410;2023-03-03T04:31:27;0.90;99.90
5870;DHT22;2961;47.702;9.410;2023-03-03T04:33:54;0.90;99.90
5870;DHT22;2961;47.702;9.410;2023-03-03T04:36:21;0.90;99.90
5870;DHT22;2961;47.702;9.410;2023-03-03T04:38:48;0.90;99.90
5870;DHT22;2961;47.702;9.410;2023-03-03T04:41:15;0.90;99.90
5870;DHT22;2961;47.702;9.410;2023-03-03T04:43:43;0.90;99.90
5870;DHT22;2961;47.702;9.410;2023-03-03T04:46:10;0.90;99.90
5870;DHT22;2961;47.702;9.410;2023-03-03T04:48:37;0.90;99.90
5870;DHT22;2961;47.702;9.410;2023-03-03T04:51:04;0.90;99.90
5870;DHT22;2961;47.702;9.410;2023-03-03T04:53:31;0.90;99.90
5870;DHT22;2961;47.702;9.410;2023-03-03T04:55:57;0.90;99.90
5870;DHT22;2961;47.702;9.410;2023-03-03T04:58:24;1.00;99.90
5870;DHT22;2961;47.702;9.410;2023-03-03T05:00:55;1.00;99.90
5870;DHT22;2961;47.702;9.410;2023-03-03T05:03:22;1.00;99.90
5870;DHT22;2961;47.702;9.410;2023-03-03T05:05:49;1.00;99.90
5870;DHT22;2961;47.702;9.410;2023-03-03T05:08:16;1.00;99.90
5870;DHT22;2961;47.702;9.410;2023-03-03T05:10:43;1.00;99.90
5870;DHT22;2961;47.702;9.410;2023-03-03T05:13:10;1.00;99.90
5870;DHT22;2961;47.702;9.410;2023-03-03T05:15:39;1.00;99.90
5870;DHT22;2961;47.702;9.410;2023-03-03T05:18:07;1.00;99.90
5870;DHT22;2961;47.702;9.410;2023-03-03T05:20:38;1.00;99.90
5870;DHT22;2961;47.702;9.410;2023-03-03T05:23:05;1.00;99.90
5870;DHT22;2961;47.702;9.410;2023-03-03T05:25:31;1.00;99.90
5870;DHT22;2961;47.702;9.410;2023-03-03T05:27:58;1.00;99.90
5870;DHT22;2961;47.702;9.410;2023-03-03T05:30:25;1.00;99.90
5870;DHT22;2961;47.702;9.410;2023-03-03T05:32:52;1.00;99.90
5870;DHT22;2961;47.702;9.410;2023-03-03T05:35:20;1.00;99.90
5870;DHT22;2961;47.702;9.410;2023-03-03T05:37:47;1.00;99.90
5870;DHT22;2961;47.702;9.410;2023-03-03T05:40:14;1.00;99.90
5870;DHT22;2961;47.702;9.410;2023-03-03T05:42:42;0.90;99.90
5870;DHT22;2961;47.702;9.410;2023-03-03T05:45:09;0.90;99.90
5870;DHT22;2961;47.702;9.410;2023-03-03T05:47:36;0.90;99.90
5870;DHT22;2961;47.702;9.410;2023-03-03T05:50:04;0.90;99.90
5870;DHT22;2961;47.702;9.410;2023-03-03T05:52:32;0.90;99.90
5870;DHT22;2961;47.702;9.410;2023-03-03T05:54:59;0.90;99.90
5870;DHT22;2961;47.702;9.410;2023-03-03T05:57:25;0.90;99.90
5870;DHT22;2961;47.702;9.410;2023-03-03T05:59:52;0.90;99.90
5870;DHT22;2961;47.702;9.410;2023-03-03T06:02:19;0.90;99.90
5870;DHT22;2961;47.702;9.410;2023-03-03T06:04:46;0.90;99.90
5870;DHT22;2961;47.702;9.410;2023-03-03T06:07:12;0.90;99.90
5870;DHT22;2961;47.702;9.410;2023-03-03T06:09:41;0.90;99.90
5870;DHT22;2961;47.702;9.410;2023-03-03T06:12:07;0.90;99.90
5870;DHT22;2961;47.702;9.410;2023-03-03T06:14:34;1.00;99.90
5870;DHT22;2961;47.702;9.410;2023-03-03T06:17:01;1.00;99.90
5870;DHT22;2961;47.702;9.410;2023-03-03T06:19:28;1.00;99.90
5870;DHT22;2961;47.702;9.410;2023-03-03T06:21:54;1.00;99.90
5870;DHT22;2961;47.702;9.410;2023-03-03T06:24:21;1.00;99.90
5870;DHT22;2961;47.702;9.410;2023-03-03T06:26:51;1.00;99.90
5870;DHT22;2961;47.702;9.410;2023-03-03T06:29:17;1.00;99.90
5870;DHT22;2961;47.702;9.410;2023-03-03T06:31:44;1.00;99.90
5870;DHT22;2961;47.702;9.410;2023-03-03T06:34:11;1.10;99.90
5870;DHT22;2961;47.702;9.410;2023-03-03T06:36:38;1.10;99.90
5870;DHT22;2961;47.702;9.410;2023-03-03T06:39:06;1.10;99.90
5870;DHT22;2961;47.702;9.410;2023-03-03T06:41:33;1.10;99.90
5870;DHT22;2961;47.702;9.410;2023-03-03T06:44:01;1.10;99.90
5870;DHT22;2961;47.702;9.410;2023-03-03T06:46:28;1.10;99.90
5870;DHT22;2961;47.702;9.410;2023-03-03T06:48:55;1.10;99.90
5870;DHT22;2961;47.702;9.410;2023-03-03T06:51:23;1.10;99.90
5870;DHT22;2961;47.702;9.410;2023-03-03T06:53:52;1.10;99.90
5870;DHT22;2961;47.702;9.410;2023-03-03T06:56:20;1.20;99.90
5870;DHT22;2961;47.702;9.410;2023-03-03T06:58:47;1.20;99.90
5870;DHT22;2961;47.702;9.410;2023-03-03T07:01:16;1.30;99.90
5870;DHT22;2961;47.702;9.410;2023-03-03T07:03:43;1.30;99.90
5870;DHT22;2961;47.702;9.410;2023-03-03T07:06:17;1.30;99.90
5870;DHT22;2961;47.702;9.410;2023-03-03T07:08:46;1.40;99.90
5870;DHT22;2961;47.702;9.410;2023-03-03T07:11:16;1.40;99.90
5870;DHT22;2961;47.702;9.410;2023-03-03T07:13:46;1.50;99.90
5870;DHT22;2961;47.702;9.410;2023-03-03T07:16:13;1.50;99.90
5870;DHT22;2961;47.702;9.410;2023-03-03T07:18:48;1.50;99.90
5870;DHT22;2961;47.702;9.410;2023-03-03T07:21:18;1.60;99.90
5870;DHT22;2961;47.702;9.410;2023-03-03T07:23:46;1.60;99.90
5870;DHT22;2961;47.702;9.410;2023-03-03T07:26:15;1.70;99.90
5870;DHT22;2961;47.702;9.410;2023-03-03T07:28:43;1.70;99.90
5870;DHT22;2961;47.702;9.410;2023-03-03T07:31:26;1.70;99.90
5870;DHT22;2961;47.702;9.410;2023-03-03T07:33:56;1.70;99.90
5870;DHT22;2961;47.702;9.410;2023-03-03T07:36:27;1.70;99.90
5870;DHT22;2961;47.702;9.410;2023-03-03T07:38:57;1.80;99.90
5870;DHT22;2961;47.702;9.410;2023-03-03T07:41:24;1.80;99.90
5870;DHT22;2961;47.702;9.410;2023-03-03T07:43:53;1.90;99.90
5870;DHT22;2961;47.702;9.410;2023-03-03T07:46:24;1.90;99.90
5870;DHT22;2961;47.702;9.410;2023-03-03T07:48:55;2.00;99.90
5870;DHT22;2961;47.702;9.410;2023-03-03T07:51:25;2.00;99.90
5870;DHT22;2961;47.702;9.410;2023-03-03T07:53:53;2.10;99.90
5870;DHT22;2961;47.702;9.410;2023-03-03T07:56:33;2.20;99.90
5870;DHT22;2961;47.702;9.410;2023-03-03T07:59:05;2.30;99.90
5870;DHT22;2961;47.702;9.410;2023-03-03T08:01:38;2.40;99.90
5870;DHT22;2961;47.702;9.410;2023-03-03T08:04:16;2.50;99.90
5870;DHT22;2961;47.702;9.410;2023-03-03T08:06:48;2.60;99.90
5870;DHT22;2961;47.702;9.410;2023-03-03T08:09:43;2.70;99.90
5870;DHT22;2961;47.702;9.410;2023-03-03T08:12:30;2.80;99.90
5870;DHT22;2961;47.702;9.410;2023-03-03T08:15:14;2.90;99.90
5870;DHT22;2961;47.702;9.410;2023-03-03T08:17:43;3.10;99.90
5870;DHT22;2961;47.702;9.410;2023-03-03T08:20:37;3.10;99.90
5870;DHT22;2961;47.702;9.410;2023-03-03T08:23:04;3.10;99.90
5870;DHT22;2961;47.702;9.410;2023-03-03T08:25:31;3.20;99.90
5870;DHT22;2961;47.702;9.410;2023-03-03T08:27:58;3.20;99.90
5870;DHT22;2961;47.702;9.410;2023-03-03T08:30:24;3.20;99.90
5870;DHT22;2961;47.702;9.410;2023-03-03T08:32:51;3.20;99.90
5870;DHT22;2961;47.702;9.410;2023-03-03T08:35:18;3.10;99.90
5870;DHT22;2961;47.702;9.410;2023-03-03T08:37:46;3.20;99.90
5870;DHT22;2961;47.702;9.410;2023-03-03T08:40:13;3.20;99.90
5870;DHT22;2961;47.702;9.410;2023-03-03T08:42:40;3.20;99.90
5870;DHT22;2961;47.702;9.410;2023-03-03T08:45:07;3.30;99.90
5870;DHT22;2961;47.702;9.410;2023-03-03T08:47:33;3.50;99.90
5870;DHT22;2961;47.702;9.410;2023-03-03T08:50:00;3.60;99.90
5870;DHT22;2961;47.702;9.410;2023-03-03T08:52:27;3.60;99.90
5870;DHT22;2961;47.702;9.410;2023-03-03T08:54:55;3.80;99.90
5870;DHT22;2961;47.702;9.410;2023-03-03T08:57:22;3.90;99.90
5870;DHT22;2961;47.702;9.410;2023-03-03T08:59:49;4.00;99.90
5870;DHT22;2961;47.702;9.410;2023-03-03T09:02:15;4.10;99.90
5870;DHT22;2961;47.702;9.410;2023-03-03T09:04:42;4.20;99.90
5870;DHT22;2961;47.702;9.410;2023-03-03T09:07:09;4.40;99.90
5870;DHT22;2961;47.702;9.410;2023-03-03T09:09:36;4.60;99.90
5870;DHT22;2961;47.702;9.410;2023-03-03T09:12:14;4.70;99.90
5870;DHT22;2961;47.702;9.410;2023-03-03T09:14:41;4.90;99.90
5870;DHT22;2961;47.702;9.410;2023-03-03T09:17:21;5.00;99.90
5870;DHT22;2961;47.702;9.410;2023-03-03T09:19:49;5.00;99.90
5870;DHT22;2961;47.702;9.410;2023-03-03T09:22:18;5.10;99.90
5870;DHT22;2961;47.702;9.410;2023-03-03T09:24:46;5.10;99.90
5870;DHT22;2961;47.702;9.410;2023-03-03T09:27:18;5.20;99.90
5870;DHT22;2961;47.702;9.410;2023-03-03T09:29:49;5.30;99.90
5870;DHT22;2961;47.702;9.410;2023-03-03T09:32:25;5.50;99.90
5870;DHT22;2961;47.702;9.410;2023-03-03T09:34:54;5.50;99.90
5870;DHT22;2961;47.702;9.410;2023-03-03T09:37:22;5.70;99.90
5870;DHT22;2961;47.702;9.410;2023-03-03T09:39:51;5.70;99.90
5870;DHT22;2961;47.702;9.410;2023-03-03T09:42:53;5.80;99.90
5870;DHT22;2961;47.702;9.410;2023-03-03T09:45:47;5.60;99.90
5870;DHT22;2961;47.702;9.410;2023-03-03T09:48:28;5.80;99.90
5870;DHT22;2961;47.702;9.410;2023-03-03T09:51:13;6.00;99.90
5870;DHT22;2961;47.702;9.410;2023-03-03T09:53:55;6.00;99.90
5870;DHT22;2961;47.702;9.410;2023-03-03T09:56:29;5.80;99.90
5870;DHT22;2961;47.702;9.410;2023-03-03T09:59:15;5.80;99.90
5870;DHT22;2961;47.702;9.410;2023-03-03T10:01:52;6.00;99.90
5870;DHT22;2961;47.702;9.410;2023-03-03T10:04:42;6.00;99.90
5870;DHT22;2961;47.702;9.410;2023-03-03T10:07:21;6.10;99.90
5870;DHT22;2961;47.702;9.410;2023-03-03T10:10:05;6.20;99.90
5870;DHT22;2961;47.702;9.410;2023-03-03T10:12:44;6.20;99.90
5870;DHT22;2961;47.702;9.410;2023-03-03T10:15:29;6.20;99.90
5870;DHT22;2961;47.702;9.410;2023-03-03T10:18:18;6.30;99.90
5870;DHT22;2961;47.702;9.410;2023-03-03T10:20:58;6.10;99.90
5870;DHT22;2961;47.702;9.410;2023-03-03T10:23:41;6.00;99.90
5870;DHT22;2961;47.702;9.410;2023-03-03T10:26:16;5.90;99.90
5870;DHT22;2961;47.702;9.410;2023-03-03T10:29:01;5.90;99.90
5870;DHT22;2961;47.702;9.410;2023-03-03T10:31:40;5.80;99.90
5870;DHT22;2961;47.702;9.410;2023-03-03T10:34:22;5.80;99.90
5870;DHT22;2961;47.702;9.410;2023-03-03T10:36:54;5.80;99.90
5870;DHT22;2961;47.702;9.410;2023-03-03T10:39:44;5.80;99.90
5870;DHT22;2961;47.702;9.410;2023-03-03T10:42:39;5.90;99.90
5870;DHT22;2961;47.702;9.410;2023-03-03T10:45:28;6.00;99.90
5870;DHT22;2961;47.702;9.410;2023-03-03T10:48:17;6.00;99.90
5870;DHT22;2961;47.702;9.410;2023-03-03T10:50:55;6.10;99.90
5870;DHT22;2961;47.702;9.410;2023-03-03T10:53:30;6.20;99.90
5870;DHT22;2961;47.702;9.410;2023-03-03T10:56:14;6.20;99.90
5870;DHT22;2961;47.702;9.410;2023-03-03T10:58:55;6.20;99.90
5870;DHT22;2961;47.702;9.410;2023-03-03T11:01:29;6.20;99.90
5870;DHT22;2961;47.702;9.410;2023-03-03T11:04:24;6.30;99.90
5870;DHT22;2961;47.702;9.410;2023-03-03T11:07:03;6.50;99.90
5870;DHT22;2961;47.702;9.410;2023-03-03T11:09:51;6.60;99.90
5870;DHT22;2961;47.702;9.410;2023-03-03T11:12:31;6.80;99.90
5870;DHT22;2961;47.702;9.410;2023-03-03T11:15:17;7.00;99.90
5870;DHT22;2961;47.702;9.410;2023-03-03T11:18:13;7.00;99.90
5870;DHT22;2961;47.702;9.410;2023-03-03T11:20:48;7.20;99.90
5870;DHT22;2961;47.702;9.410;2023-03-03T11:23:40;7.30;99.90
5870;DHT22;2961;47.702;9.410;2023-03-03T11:26:13;7.30;99.90
5870;DHT22;2961;47.702;9.410;2023-03-03T11:28:55;7.20;99.90
5870;DHT22;2961;47.702;9.410;2023-03-03T11:31:33;7.00;99.90
5870;DHT22;2961;47.702;9.410;2023-03-03T11:34:11;6.90;99.90
5870;DHT22;2961;47.702;9.410;2023-03-03T11:36:44;6.90;99.90
5870;DHT22;2961;47.702;9.410;2023-03-03T11:39:17;6.90;99.90
5870;DHT22;2961;47.702;9.410;2023-03-03T11:41:54;7.10;99.90
5870;DHT22;2961;47.702;9.410;2023-03-03T11:44:31;7.00;99.90
5870;DHT22;2961;47.702;9.410;2023-03-03T11:47:01;6.90;99.90
5870;DHT22;2961;47.702;9.410;2023-03-03T11:49:36;6.90;99.90
5870;DHT22;2961;47.702;9.410;2023-03-03T11:52:18;6.80;99.90
5870;DHT22;2961;47.702;9.410;2023-03-03T11:54:51;6.70;99.90
5870;DHT22;2961;47.702;9.410;2023-03-03T11:57:24;6.70;99.90
5870;DHT22;2961;47.702;9.410;2023-03-03T12:00:00;6.50;99.90
5870;DHT22;2961;47.702;9.410;2023-03-03T12:02:57;6.50;99.90
5870;DHT22;2961;47.702;9.410;2023-03-03T12:05:45;6.40;99.90
5870;DHT22;2961;47.702;9.410;2023-03-03T12:08:34;6.50;99.90
5870;DHT22;2961;47.702;9.410;2023-03-03T12:11:06;6.60;99.90
5870;DHT22;2961;47.702;9.410;2023-03-03T12:13:47;6.60;99.90
5870;DHT22;2961;47.702;9.410;2023-03-03T12:16:21;6.60;99.90
5870;DHT22;2961;47.702;9.410;2023-03-03T12:19:05;6.60;99.90
5870;DHT22;2961;47.702;9.410;2023-03-03T12:21:55;6.70;99.90
5870;DHT22;2961;47.702;9.410;2023-03-03T12:24:45;6.70;99.90
5870;DHT22;2961;47.702;9.410;2023-03-03T12:27:23;6.80;99.90
5870;DHT22;2961;47.702;9.410;2023-03-03T12:29:58;6.90;99.90
5870;DHT22;2961;47.702;9.410;2023-03-03T12:32:37;7.00;99.90
5870;DHT22;2961;47.702;9.410;2023-03-03T12:35:13;7.10;99.90
5870;DHT22;2961;47.702;9.410;2023-03-03T12:37:47;7.30;99.90
5870;DHT22;2961;47.702;9.410;2023-03-03T12:40:20;7.40;99.90
5870;DHT22;2961;47.702;9.410;2023-03-03T12:43:04;7.30;99.90
5870;DHT22;2961;47.702;9.410;2023-03-03T12:45:43;7.40;99.90
5870;DHT22;2961;47.702;9.410;2023-03-03T12:48:15;7.40;99.90
5870;DHT22;2961;47.702;9.410;2023-03-03T12:50:52;7.40;99.90
5870;DHT22;2961;47.702;9.410;2023-03-03T12:56:36;7.40;99.90
5870;DHT22;2961;47.702;9.410;2023-03-03T12:59:08;7.40;99.90
5870;DHT22;2961;47.702;9.410;2023-03-03T13:01:51;7.40;99.90
5870;DHT22;2961;47.702;9.410;2023-03-03T13:04:31;7.20;99.90
5870;DHT22;2961;47.702;9.410;2023-03-03T13:07:04;7.30;99.90
5870;DHT22;2961;47.702;9.410;2023-03-03T13:09:39;7.30;99.90
5870;DHT22;2961;47.702;9.410;2023-03-03T13:12:21;7.40;99.90
5870;DHT22;2961;47.702;9.410;2023-03-03T13:14:58;7.50;99.90
5870;DHT22;2961;47.702;9.410;2023-03-03T13:17:31;7.50;99.90
5870;DHT22;2961;47.702;9.410;2023-03-03T13:20:02;7.50;99.90
5870;DHT22;2961;47.702;9.410;2023-03-03T13:22:43;7.50;99.90
5870;DHT22;2961;47.702;9.410;2023-03-03T13:28:26;7.40;99.90
5870;DHT22;2961;47.702;9.410;2023-03-03T13:30:57;7.40;99.90
5870;DHT22;2961;47.702;9.410;2023-03-03T13:33:28;7.30;99.90
5870;DHT22;2961;47.702;9.410;2023-03-03T13:35:57;7.40;99.90
5870;DHT22;2961;47.702;9.410;2023-03-03T13:38:28;7.40;99.90
5870;DHT22;2961;47.702;9.410;2023-03-03T13:41:03;7.40;99.90
5870;DHT22;2961;47.702;9.410;2023-03-03T13:43:39;7.30;99.90
5870;DHT22;2961;47.702;9.410;2023-03-03T13:46:14;7.30;99.90
5870;DHT22;2961;47.702;9.410;2023-03-03T13:48:57;7.20;99.90
5870;DHT22;2961;47.702;9.410;2023-03-03T13:51:34;7.10;99.90
5870;DHT22;2961;47.702;9.410;2023-03-03T13:54:11;7.10;99.90
5870;DHT22;2961;47.702;9.410;2023-03-03T13:57:06;7.10;99.90
5870;DHT22;2961;47.702;9.410;2023-03-03T13:59:47;7.10;99.90
5870;DHT22;2961;47.702;9.410;2023-03-03T14:02:28;7.10;99.90
5870;DHT22;2961;47.702;9.410;2023-03-03T14:05:07;7.10;99.90
5870;DHT22;2961;47.702;9.410;2023-03-03T14:07:39;7.10;99.90
5870;DHT22;2961;47.702;9.410;2023-03-03T14:10:12;7.20;99.90
5870;DHT22;2961;47.702;9.410;2023-03-03T14:12:46;7.10;99.90
5870;DHT22;2961;47.702;9.410;2023-03-03T14:15:22;6.90;99.90
5870;DHT22;2961;47.702;9.410;2023-03-03T14:18:08;6.90;99.90
5870;DHT22;2961;47.702;9.410;2023-03-03T14:20:40;6.80;99.90
5870;DHT22;2961;47.702;9.410;2023-03-03T14:23:13;6.60;99.90
5870;DHT22;2961;47.702;9.410;2023-03-03T14:26:04;6.50;99.90
5870;DHT22;2961;47.702;9.410;2023-03-03T14:28:37;6.50;99.90
5870;DHT22;2961;47.702;9.410;2023-03-03T14:31:16;6.40;99.90
5870;DHT22;2961;47.702;9.410;2023-03-03T14:33:53;6.40;99.90
5870;DHT22;2961;47.702;9.410;2023-03-03T14:36:26;6.40;99.90
5870;DHT22;2961;47.702;9.410;2023-03-03T14:38:53;6.60;99.90
5870;DHT22;2961;47.702;9.410;2023-03-03T14:41:34;6.60;99.90
5870;DHT22;2961;47.702;9.410;2023-03-03T14:44:20;6.60;99.90
5870;DHT22;2961;47.702;9.410;2023-03-03T14:49:41;6.50;99.90
5870;DHT22;2961;47.702;9.410;2023-03-03T14:52:19;6.40;99.90
5870;DHT22;2961;47.702;9.410;2023-03-03T14:54:47;6.40;99.90
5870;DHT22;2961;47.702;9.410;2023-03-03T14:57:16;6.40;99.90
5870;DHT22;2961;47.702;9.410;2023-03-03T14:59:55;6.30;99.90
5870;DHT22;2961;47.702;9.410;2023-03-03T15:02:30;6.30;99.90
5870;DHT22;2961;47.702;9.410;2023-03-03T15:05:19;6.10;99.90
5870;DHT22;2961;47.702;9.410;2023-03-03T15:07:49;6.00;99.90
5870;DHT22;2961;47.702;9.410;2023-03-03T15:10:30;6.10;99.90
5870;DHT22;2961;47.702;9.410;2023-03-03T15:12:58;6.10;99.90
5870;DHT22;2961;47.702;9.410;2023-03-03T15:15:33;6.10;99.90
5870;DHT22;2961;47.702;9.410;2023-03-03T15:18:03;6.10;99.90
5870;DHT22;2961;47.702;9.410;2023-03-03T15:20:41;6.10;99.90
5870;DHT22;2961;47.702;9.410;2023-03-03T15:25:58;6.00;99.90
5870;DHT22;2961;47.702;9.410;2023-03-03T15:28:37;6.00;99.90
5870;DHT22;2961;47.702;9.410;2023-03-03T15:31:09;6.00;99.90
5870;DHT22;2961;47.702;9.410;2023-03-03T15:33:46;6.00;99.90
5870;DHT22;2961;47.702;9.410;2023-03-03T15:36:22;5.90;99.90
5870;DHT22;2961;47.702;9.410;2023-03-03T15:39:00;6.00;99.90
5870;DHT22;2961;47.702;9.410;2023-03-03T15:41:37;6.00;99.90
5870;DHT22;2961;47.702;9.410;2023-03-03T15:44:13;6.00;99.90
5870;DHT22;2961;47.702;9.410;2023-03-03T15:46:55;6.00;99.90
5870;DHT22;2961;47.702;9.410;2023-03-03T15:49:40;6.00;99.90
5870;DHT22;2961;47.702;9.410;2023-03-03T15:52:24;6.00;99.90
5870;DHT22;2961;47.702;9.410;2023-03-03T15:55:05;5.90;99.90
5870;DHT22;2961;47.702;9.410;2023-03-03T15:57:43;5.90;99.90
5870;DHT22;2961;47.702;9.410;2023-03-03T16:00:33;5.90;99.90
5870;DHT22;2961;47.702;9.410;2023-03-03T16:03:10;5.80;99.90
5870;DHT22;2961;47.702;9.410;2023-03-03T16:05:45;5.90;99.90
5870;DHT22;2961;47.702;9.410;2023-03-03T16:08:18;5.90;99.90
5870;DHT22;2961;47.702;9.410;2023-03-03T16:10:55;5.80;99.90
5870;DHT22;2961;47.702;9.410;2023-03-03T16:13:46;5.80;99.90
5870;DHT22;2961;47.702;9.410;2023-03-03T16:16:23;5.70;99.90
5870;DHT22;2961;47.702;9.410;2023-03-03T16:19:02;5.60;99.90
5870;DHT22;2961;47.702;9.410;2023-03-03T16:21:46;5.60;99.90
5870;DHT22;2961;47.702;9.410;2023-03-03T16:24:22;5.50;99.90
5870;DHT22;2961;47.702;9.410;2023-03-03T16:26:59;5.50;99.90
5870;DHT22;2961;47.702;9.410;2023-03-03T16:29:44;5.40;99.90
5870;DHT22;2961;47.702;9.410;2023-03-03T16:32:16;5.40;99.90
5870;DHT22;2961;47.702;9.410;2023-03-03T16:34:55;5.40;99.90
5870;DHT22;2961;47.702;9.410;2023-03-03T16:37:28;5.30;99.90
5870;DHT22;2961;47.702;9.410;2023-03-03T16:40:01;5.30;99.90
5870;DHT22;2961;47.702;9.410;2023-03-03T16:42:30;5.20;99.90
5870;DHT22;2961;47.702;9.410;2023-03-03T16:45:12;5.10;99.90
5870;DHT22;2961;47.702;9.410;2023-03-03T16:47:52;5.10;99.90
5870;DHT22;2961;47.702;9.410;2023-03-03T16:50:29;5.10;99.90
5870;DHT22;2961;47.702;9.410;2023-03-03T16:53:03;5.10;99.90
5870;DHT22;2961;47.702;9.410;2023-03-03T16:55:37;5.10;99.90
5870;DHT22;2961;47.702;9.410;2023-03-03T16:58:19;5.00;99.90
5870;DHT22;2961;47.702;9.410;2023-03-03T17:00:55;5.00;99.90
5870;DHT22;2961;47.702;9.410;2023-03-03T17:03:37;4.90;99.90
5870;DHT22;2961;47.702;9.410;2023-03-03T17:06:12;4.90;99.90